sensor_id;sensor_type;location;lat;lon;timestamp;P1;durP1;ratioP1;P2;durP2;ratioP2
53971;SDS011;40530;53.062;6.078;2023-03-14T00:02:19;23.52;;;4.45;;
53971;SDS011;40530;53.062;6.078;2023-03-14T00:04:45;27.65;;;5.38;;
53971;SDS011;40530;53.062;6.078;2023-03-14T00:07:11;25.80;;;5.10;;
53971;SDS011;40530;53.062;6.078;2023-03-14T00:09:37;33.63;;;5.22;;
53971;SDS011;40530;53.062;6.078;2023-03-14T00:12:03;24.90;;;4.68;;
53971;SDS011;40530;53.062;6.078;2023-03-14T00:14:30;28.52;;;5.03;;
53971;SDS011;40530;53.062;6.078;2023-03-14T00:16:57;27.20;;;5.85;;
53971;SDS011;40530;53.062;6.078;2023-03-14T00:19:23;28.95;;;6.47;;
53971;SDS011;40530;53.062;6.078;2023-03-14T00:21:49;28.15;;;5.80;;
53971;SDS011;40530;53.062;6.078;2023-03-14T00:24:15;31.40;;;4.93;;
53971;SDS011;40530;53.062;6.078;2023-03-14T00:26:41;24.00;;;4.80;;
53971;SDS011;40530;53.062;6.078;2023-03-14T00:29:07;29.58;;;4.45;;
53971;SDS011;40530;53.062;6.078;2023-03-14T00:31:33;21.20;;;5.00;;
53971;SDS011;40530;53.062;6.078;2023-03-14T00:34:00;34.78;;;5.90;;
53971;SDS011;40530;53.062;6.078;2023-03-14T00:36:27;17.20;;;4.13;;
53971;SDS011;40530;53.062;6.078;2023-03-14T00:38:53;22.02;;;3.90;;
53971;SDS011;40530;53.062;6.078;2023-03-14T00:41:20;23.65;;;4.45;;
53971;SDS011;40530;53.062;6.078;2023-03-14T00:43:47;14.75;;;4.28;;
53971;SDS011;40530;53.062;6.078;2023-03-14T00:46:13;30.77;;;4.35;;
53971;SDS011;40530;53.062;6.078;2023-03-14T00:48:40;26.73;;;3.80;;
53971;SDS011;40530;53.062;6.078;2023-03-14T00:51:06;28.15;;;5.40;;
53971;SDS011;40530;53.062;6.078;2023-03-14T00:53:36;29.88;;;4.80;;
53971;SDS011;40530;53.062;6.078;2023-03-14T00:56:07;30.30;;;4.32;;
53971;SDS011;40530;53.062;6.078;2023-03-14T00:58:34;23.77;;;4.43;;
53971;SDS011;40530;53.062;6.078;2023-03-14T01:01:06;21.55;;;3.75;;
53971;SDS011;40530;53.062;6.078;2023-03-14T01:03:32;21.60;;;4.47;;
53971;SDS011;40530;53.062;6.078;2023-03-14T01:06:11;30.65;;;4.28;;
53971;SDS011;40530;53.062;6.078;2023-03-14T01:08:38;25.55;;;4.32;;
53971;SDS011;40530;53.062;6.078;2023-03-14T01:11:08;32.95;;;4.53;;
53971;SDS011;40530;53.062;6.078;2023-03-14T01:13:34;25.70;;;6.30;;
53971;SDS011;40530;53.062;6.078;2023-03-14T01:16:05;24.30;;;3.97;;
53971;SDS011;40530;53.062;6.078;2023-03-14T01:18:32;25.15;;;4.43;;
53971;SDS011;40530;53.062;6.078;2023-03-14T01:20:58;20.02;;;5.45;;
53971;SDS011;40530;53.062;6.078;2023-03-14T01:23:24;19.88;;;5.00;;
53971;SDS011;40530;53.062;6.078;2023-03-14T01:25:50;18.42;;;5.05;;
53971;SDS011;40530;53.062;6.078;2023-03-14T01:28:16;20.83;;;3.97;;
53971;SDS011;40530;53.062;6.078;2023-03-14T01:30:42;21.67;;;3.40;;
53971;SDS011;40530;53.062;6.078;2023-03-14T01:33:08;20.05;;;4.05;;
53971;SDS011;40530;53.062;6.078;2023-03-14T01:35:36;22.48;;;3.33;;
53971;SDS011;40530;53.062;6.078;2023-03-14T01:38:02;21.05;;;3.28;;
53971;SDS011;40530;53.062;6.078;2023-03-14T01:40:28;19.23;;;3.03;;
53971;SDS011;40530;53.062;6.078;2023-03-14T01:42:55;19.50;;;3.55;;
53971;SDS011;40530;53.062;6.078;2023-03-14T01:48:06;29.23;;;4.30;;
53971;SDS011;40530;53.062;6.078;2023-03-14T01:50:32;24.40;;;3.40;;
53971;SDS011;40530;53.062;6.078;2023-03-14T01:52:58;15.13;;;3.00;;
53971;SDS011;40530;53.062;6.078;2023-03-14T01:55:24;21.13;;;2.92;;
53971;SDS011;40530;53.062;6.078;2023-03-14T01:57:51;17.65;;;3.53;;
53971;SDS011;40530;53.062;6.078;2023-03-14T02:00:19;25.90;;;4.63;;
53971;SDS011;40530;53.062;6.078;2023-03-14T02:02:47;18.13;;;3.13;;
53971;SDS011;40530;53.062;6.078;2023-03-14T02:05:16;25.42;;;4.22;;
53971;SDS011;40530;53.062;6.078;2023-03-14T02:07:55;18.95;;;2.72;;
53971;SDS011;40530;53.062;6.078;2023-03-14T02:10:25;15.95;;;3.88;;
53971;SDS011;40530;53.062;6.078;2023-03-14T02:12:53;19.73;;;4.00;;
53971;SDS011;40530;53.062;6.078;2023-03-14T02:15:20;21.95;;;3.95;;
53971;SDS011;40530;53.062;6.078;2023-03-14T02:17:46;16.55;;;2.42;;
53971;SDS011;40530;53.062;6.078;2023-03-14T02:22:45;17.23;;;2.75;;
53971;SDS011;40530;53.062;6.078;2023-03-14T02:25:17;19.38;;;2.50;;
53971;SDS011;40530;53.062;6.078;2023-03-14T02:27:46;13.52;;;2.08;;
53971;SDS011;40530;53.062;6.078;2023-03-14T02:30:14;12.10;;;2.50;;
53971;SDS011;40530;53.062;6.078;2023-03-14T02:32:41;15.88;;;2.72;;
53971;SDS011;40530;53.062;6.078;2023-03-14T02:35:10;24.45;;;4.68;;
53971;SDS011;40530;53.062;6.078;2023-03-14T02:37:39;19.42;;;3.00;;
53971;SDS011;40530;53.062;6.078;2023-03-14T02:40:06;15.90;;;2.70;;
53971;SDS011;40530;53.062;6.078;2023-03-14T02:42:33;24.15;;;3.17;;
53971;SDS011;40530;53.062;6.078;2023-03-14T02:47:29;22.42;;;2.90;;
53971;SDS011;40530;53.062;6.078;2023-03-14T02:49:59;20.92;;;3.22;;
53971;SDS011;40530;53.062;6.078;2023-03-14T02:52:26;24.75;;;3.80;;
53971;SDS011;40530;53.062;6.078;2023-03-14T02:54:52;13.75;;;2.88;;
53971;SDS011;40530;53.062;6.078;2023-03-14T02:57:18;17.23;;;2.55;;
53971;SDS011;40530;53.062;6.078;2023-03-14T02:59:44;22.52;;;3.10;;
53971;SDS011;40530;53.062;6.078;2023-03-14T03:02:10;19.75;;;3.58;;
53971;SDS011;40530;53.062;6.078;2023-03-14T03:04:36;15.80;;;2.80;;
53971;SDS011;40530;53.062;6.078;2023-03-14T03:07:02;19.52;;;3.58;;
53971;SDS011;40530;53.062;6.078;2023-03-14T03:09:28;26.48;;;3.38;;
53971;SDS011;40530;53.062;6.078;2023-03-14T03:11:54;27.48;;;4.57;;
53971;SDS011;40530;53.062;6.078;2023-03-14T03:14:20;19.85;;;3.83;;
53971;SDS011;40530;53.062;6.078;2023-03-14T03:16:46;21.63;;;3.38;;
53971;SDS011;40530;53.062;6.078;2023-03-14T03:19:12;21.10;;;3.15;;
53971;SDS011;40530;53.062;6.078;2023-03-14T03:21:39;25.60;;;4.57;;
53971;SDS011;40530;53.062;6.078;2023-03-14T03:24:05;29.63;;;3.85;;
53971;SDS011;40530;53.062;6.078;2023-03-14T03:26:33;19.08;;;3.90;;
53971;SDS011;40530;53.062;6.078;2023-03-14T03:28:59;23.85;;;3.47;;
53971;SDS011;40530;53.062;6.078;2023-03-14T03:31:25;26.88;;;4.55;;
53971;SDS011;40530;53.062;6.078;2023-03-14T03:33:52;33.13;;;3.90;;
53971;SDS011;40530;53.062;6.078;2023-03-14T03:36:24;27.95;;;4.07;;
53971;SDS011;40530;53.062;6.078;2023-03-14T03:38:50;32.70;;;4.70;;
53971;SDS011;40530;53.062;6.078;2023-03-14T03:41:16;30.98;;;4.28;;
53971;SDS011;40530;53.062;6.078;2023-03-14T03:43:42;36.28;;;5.28;;
53971;SDS011;40530;53.062;6.078;2023-03-14T03:46:08;28.88;;;4.70;;
53971;SDS011;40530;53.062;6.078;2023-03-14T03:48:35;34.75;;;3.85;;
53971;SDS011;40530;53.062;6.078;2023-03-14T03:51:01;38.25;;;8.13;;
53971;SDS011;40530;53.062;6.078;2023-03-14T03:53:28;28.80;;;4.30;;
53971;SDS011;40530;53.062;6.078;2023-03-14T03:55:54;36.33;;;4.68;;
53971;SDS011;40530;53.062;6.078;2023-03-14T03:58:20;28.95;;;3.85;;
53971;SDS011;40530;53.062;6.078;2023-03-14T04:00:46;27.08;;;3.85;;
53971;SDS011;40530;53.062;6.078;2023-03-14T04:03:12;33.00;;;4.82;;
53971;SDS011;40530;53.062;6.078;2023-03-14T04:05:38;39.60;;;9.20;;
53971;SDS011;40530;53.062;6.078;2023-03-14T04:08:04;27.13;;;4.93;;
53971;SDS011;40530;53.062;6.078;2023-03-14T04:10:33;30.02;;;5.57;;
53971;SDS011;40530;53.062;6.078;2023-03-14T04:12:59;37.03;;;5.20;;
53971;SDS011;40530;53.062;6.078;2023-03-14T04:15:25;25.95;;;4.82;;
53971;SDS011;40530;53.062;6.078;2023-03-14T04:17:55;39.53;;;5.00;;
53971;SDS011;40530;53.062;6.078;2023-03-14T04:20:21;29.73;;;4.43;;
53971;SDS011;40530;53.062;6.078;2023-03-14T04:22:47;21.65;;;4.95;;
53971;SDS011;40530;53.062;6.078;2023-03-14T04:25:14;27.38;;;3.75;;
53971;SDS011;40530;53.062;6.078;2023-03-14T04:27:42;28.38;;;3.80;;
53971;SDS011;40530;53.062;6.078;2023-03-14T04:30:08;18.75;;;4.43;;
53971;SDS011;40530;53.062;6.078;2023-03-14T04:32:34;25.35;;;4.18;;
53971;SDS011;40530;53.062;6.078;2023-03-14T04:35:00;22.20;;;4.28;;
53971;SDS011;40530;53.062;6.078;2023-03-14T04:37:26;34.28;;;6.05;;
53971;SDS011;40530;53.062;6.078;2023-03-14T04:39:52;31.55;;;5.38;;
53971;SDS011;40530;53.062;6.078;2023-03-14T04:42:19;29.70;;;5.43;;
53971;SDS011;40530;53.062;6.078;2023-03-14T04:44:45;33.08;;;7.53;;
53971;SDS011;40530;53.062;6.078;2023-03-14T04:47:14;23.83;;;4.88;;
53971;SDS011;40530;53.062;6.078;2023-03-14T04:49:40;31.80;;;6.70;;
53971;SDS011;40530;53.062;6.078;2023-03-14T04:52:06;24.27;;;5.43;;
53971;SDS011;40530;53.062;6.078;2023-03-14T04:54:32;30.77;;;6.55;;
53971;SDS011;40530;53.062;6.078;2023-03-14T04:56:58;21.63;;;5.65;;
53971;SDS011;40530;53.062;6.078;2023-03-14T04:59:24;22.17;;;6.68;;
53971;SDS011;40530;53.062;6.078;2023-03-14T05:01:50;24.58;;;7.38;;
53971;SDS011;40530;53.062;6.078;2023-03-14T05:04:16;16.25;;;6.13;;
53971;SDS011;40530;53.062;6.078;2023-03-14T05:06:42;23.55;;;6.45;;
53971;SDS011;40530;53.062;6.078;2023-03-14T05:09:09;27.05;;;7.18;;
53971;SDS011;40530;53.062;6.078;2023-03-14T05:11:35;19.35;;;6.70;;
53971;SDS011;40530;53.062;6.078;2023-03-14T05:14:01;26.65;;;6.90;;
53971;SDS011;40530;53.062;6.078;2023-03-14T05:16:30;24.23;;;7.55;;
53971;SDS011;40530;53.062;6.078;2023-03-14T05:18:56;15.50;;;5.90;;
53971;SDS011;40530;53.062;6.078;2023-03-14T05:21:22;14.20;;;6.03;;
53971;SDS011;40530;53.062;6.078;2023-03-14T05:23:49;17.13;;;6.05;;
53971;SDS011;40530;53.062;6.078;2023-03-14T05:26:15;19.42;;;6.40;;
53971;SDS011;40530;53.062;6.078;2023-03-14T05:28:41;14.10;;;5.85;;
53971;SDS011;40530;53.062;6.078;2023-03-14T05:31:09;19.77;;;6.25;;
53971;SDS011;40530;53.062;6.078;2023-03-14T05:33:35;18.35;;;6.03;;
53971;SDS011;40530;53.062;6.078;2023-03-14T05:36:01;15.68;;;5.15;;
53971;SDS011;40530;53.062;6.078;2023-03-14T05:38:27;15.90;;;6.15;;
53971;SDS011;40530;53.062;6.078;2023-03-14T05:40:53;18.98;;;6.25;;
53971;SDS011;40530;53.062;6.078;2023-03-14T05:43:19;13.45;;;5.68;;
53971;SDS011;40530;53.062;6.078;2023-03-14T05:45:46;15.40;;;5.72;;
53971;SDS011;40530;53.062;6.078;2023-03-14T05:48:12;15.68;;;6.10;;
53971;SDS011;40530;53.062;6.078;2023-03-14T05:50:38;16.02;;;5.82;;
53971;SDS011;40530;53.062;6.078;2023-03-14T05:53:04;17.38;;;5.47;;
53971;SDS011;40530;53.062;6.078;2023-03-14T05:55:30;13.85;;;5.43;;
53971;SDS011;40530;53.062;6.078;2023-03-14T05:57:56;17.52;;;5.60;;
53971;SDS011;40530;53.062;6.078;2023-03-14T06:00:22;20.15;;;6.57;;
53971;SDS011;40530;53.062;6.078;2023-03-14T06:02:48;12.18;;;4.93;;
53971;SDS011;40530;53.062;6.078;2023-03-14T06:05:14;19.20;;;5.03;;
53971;SDS011;40530;53.062;6.078;2023-03-14T06:07:40;18.92;;;5.88;;
53971;SDS011;40530;53.062;6.078;2023-03-14T06:10:07;17.13;;;5.65;;
53971;SDS011;40530;53.062;6.078;2023-03-14T06:12:33;12.25;;;4.47;;
53971;SDS011;40530;53.062;6.078;2023-03-14T06:14:59;11.70;;;5.10;;
53971;SDS011;40530;53.062;6.078;2023-03-14T06:17:25;12.40;;;4.80;;
53971;SDS011;40530;53.062;6.078;2023-03-14T06:19:51;19.33;;;4.40;;
53971;SDS011;40530;53.062;6.078;2023-03-14T06:22:17;12.65;;;4.68;;
53971;SDS011;40530;53.062;6.078;2023-03-14T06:24:44;12.15;;;3.28;;
53971;SDS011;40530;53.062;6.078;2023-03-14T06:27:10;11.80;;;2.13;;
53971;SDS011;40530;53.062;6.078;2023-03-14T06:29:36;10.40;;;1.65;;
53971;SDS011;40530;53.062;6.078;2023-03-14T06:32:02;15.68;;;1.73;;
53971;SDS011;40530;53.062;6.078;2023-03-14T06:34:29;16.85;;;1.88;;
53971;SDS011;40530;53.062;6.078;2023-03-14T06:36:55;7.47;;;1.10;;
53971;SDS011;40530;53.062;6.078;2023-03-14T06:39:21;12.02;;;1.48;;
53971;SDS011;40530;53.062;6.078;2023-03-14T06:41:47;16.33;;;1.83;;
53971;SDS011;40530;53.062;6.078;2023-03-14T06:44:13;12.18;;;1.73;;
53971;SDS011;40530;53.062;6.078;2023-03-14T06:46:39;15.73;;;2.10;;
53971;SDS011;40530;53.062;6.078;2023-03-14T06:49:05;18.48;;;1.73;;
53971;SDS011;40530;53.062;6.078;2023-03-14T06:51:31;15.88;;;1.80;;
53971;SDS011;40530;53.062;6.078;2023-03-14T06:53:57;16.10;;;1.90;;
53971;SDS011;40530;53.062;6.078;2023-03-14T06:56:23;16.17;;;1.63;;
53971;SDS011;40530;53.062;6.078;2023-03-14T06:58:49;7.18;;;1.02;;
53971;SDS011;40530;53.062;6.078;2023-03-14T07:01:26;13.27;;;1.73;;
53971;SDS011;40530;53.062;6.078;2023-03-14T07:03:52;12.57;;;1.75;;
53971;SDS011;40530;53.062;6.078;2023-03-14T07:06:18;10.13;;;1.20;;
53971;SDS011;40530;53.062;6.078;2023-03-14T07:08:44;14.90;;;3.38;;
53971;SDS011;40530;53.062;6.078;2023-03-14T07:11:11;9.75;;;1.27;;
53971;SDS011;40530;53.062;6.078;2023-03-14T07:13:37;12.07;;;1.85;;
53971;SDS011;40530;53.062;6.078;2023-03-14T07:16:04;12.05;;;1.33;;
53971;SDS011;40530;53.062;6.078;2023-03-14T07:18:30;6.25;;;0.90;;
53971;SDS011;40530;53.062;6.078;2023-03-14T07:20:56;10.57;;;1.00;;
53971;SDS011;40530;53.062;6.078;2023-03-14T07:23:22;7.93;;;1.15;;
53971;SDS011;40530;53.062;6.078;2023-03-14T07:25:48;8.80;;;1.35;;
53971;SDS011;40530;53.062;6.078;2023-03-14T07:28:16;11.35;;;1.02;;
53971;SDS011;40530;53.062;6.078;2023-03-14T07:30:42;6.78;;;1.63;;
53971;SDS011;40530;53.062;6.078;2023-03-14T07:33:08;7.72;;;1.52;;
53971;SDS011;40530;53.062;6.078;2023-03-14T07:35:34;6.13;;;0.65;;
53971;SDS011;40530;53.062;6.078;2023-03-14T07:38:00;7.07;;;0.85;;
53971;SDS011;40530;53.062;6.078;2023-03-14T07:40:26;7.53;;;0.82;;
53971;SDS011;40530;53.062;6.078;2023-03-14T07:42:52;9.85;;;1.63;;
53971;SDS011;40530;53.062;6.078;2023-03-14T07:45:20;6.72;;;0.90;;
53971;SDS011;40530;53.062;6.078;2023-03-14T07:47:46;7.18;;;0.90;;
53971;SDS011;40530;53.062;6.078;2023-03-14T07:50:12;7.55;;;1.30;;
53971;SDS011;40530;53.062;6.078;2023-03-14T07:52:38;3.38;;;0.70;;
53971;SDS011;40530;53.062;6.078;2023-03-14T07:55:04;4.88;;;0.90;;
53971;SDS011;40530;53.062;6.078;2023-03-14T07:57:30;7.30;;;1.17;;
53971;SDS011;40530;53.062;6.078;2023-03-14T07:59:56;12.30;;;1.17;;
53971;SDS011;40530;53.062;6.078;2023-03-14T08:02:23;3.15;;;0.70;;
53971;SDS011;40530;53.062;6.078;2023-03-14T08:04:49;8.95;;;1.20;;
53971;SDS011;40530;53.062;6.078;2023-03-14T08:07:15;9.05;;;0.90;;
53971;SDS011;40530;53.062;6.078;2023-03-14T08:09:42;12.40;;;1.70;;
53971;SDS011;40530;53.062;6.078;2023-03-14T08:12:08;8.70;;;1.77;;
53971;SDS011;40530;53.062;6.078;2023-03-14T08:14:34;12.98;;;1.45;;
53971;SDS011;40530;53.062;6.078;2023-03-14T08:17:00;8.75;;;1.77;;
53971;SDS011;40530;53.062;6.078;2023-03-14T08:19:26;6.50;;;0.80;;
53971;SDS011;40530;53.062;6.078;2023-03-14T08:21:52;7.93;;;1.73;;
53971;SDS011;40530;53.062;6.078;2023-03-14T08:24:19;12.13;;;1.30;;
53971;SDS011;40530;53.062;6.078;2023-03-14T08:26:45;8.02;;;1.77;;
53971;SDS011;40530;53.062;6.078;2023-03-14T08:29:11;12.20;;;2.00;;
53971;SDS011;40530;53.062;6.078;2023-03-14T08:31:37;7.93;;;1.00;;
53971;SDS011;40530;53.062;6.078;2023-03-14T08:34:03;8.82;;;1.38;;
53971;SDS011;40530;53.062;6.078;2023-03-14T08:36:31;7.78;;;1.33;;
53971;SDS011;40530;53.062;6.078;2023-03-14T08:38:58;8.65;;;1.40;;
53971;SDS011;40530;53.062;6.078;2023-03-14T08:41:24;16.65;;;2.45;;
53971;SDS011;40530;53.062;6.078;2023-03-14T08:43:50;17.27;;;2.35;;
53971;SDS011;40530;53.062;6.078;2023-03-14T08:46:16;17.52;;;2.58;;
53971;SDS011;40530;53.062;6.078;2023-03-14T08:48:42;13.65;;;2.00;;
53971;SDS011;40530;53.062;6.078;2023-03-14T08:51:09;19.70;;;3.67;;
53971;SDS011;40530;53.062;6.078;2023-03-14T08:53:36;19.70;;;2.33;;
53971;SDS011;40530;53.062;6.078;2023-03-14T08:56:02;14.10;;;3.08;;
53971;SDS011;40530;53.062;6.078;2023-03-14T08:58:31;14.77;;;3.10;;
53971;SDS011;40530;53.062;6.078;2023-03-14T09:00:57;23.83;;;3.38;;
53971;SDS011;40530;53.062;6.078;2023-03-14T09:03:23;15.90;;;3.22;;
53971;SDS011;40530;53.062;6.078;2023-03-14T09:05:50;22.00;;;3.05;;
53971;SDS011;40530;53.062;6.078;2023-03-14T09:08:16;24.40;;;3.38;;
53971;SDS011;40530;53.062;6.078;2023-03-14T09:10:42;22.20;;;2.75;;
53971;SDS011;40530;53.062;6.078;2023-03-14T09:13:08;17.40;;;2.70;;
53971;SDS011;40530;53.062;6.078;2023-03-14T09:15:34;22.02;;;2.80;;
53971;SDS011;40530;53.062;6.078;2023-03-14T09:18:09;25.63;;;4.43;;
53971;SDS011;40530;53.062;6.078;2023-03-14T09:20:35;26.48;;;4.30;;
53971;SDS011;40530;53.062;6.078;2023-03-14T09:23:01;25.35;;;5.63;;
53971;SDS011;40530;53.062;6.078;2023-03-14T09:25:27;21.27;;;3.70;;
53971;SDS011;40530;53.062;6.078;2023-03-14T09:27:53;29.80;;;3.75;;
53971;SDS011;40530;53.062;6.078;2023-03-14T09:30:19;22.95;;;3.47;;
53971;SDS011;40530;53.062;6.078;2023-03-14T09:32:46;30.73;;;5.75;;
53971;SDS011;40530;53.062;6.078;2023-03-14T09:35:13;26.67;;;3.63;;
53971;SDS011;40530;53.062;6.078;2023-03-14T09:37:39;30.15;;;3.65;;
53971;SDS011;40530;53.062;6.078;2023-03-14T09:40:05;36.15;;;5.55;;
53971;SDS011;40530;53.062;6.078;2023-03-14T09:42:35;28.50;;;3.92;;
53971;SDS011;40530;53.062;6.078;2023-03-14T09:45:04;22.35;;;3.13;;
53971;SDS011;40530;53.062;6.078;2023-03-14T09:47:32;20.55;;;4.65;;
53971;SDS011;40530;53.062;6.078;2023-03-14T09:49:59;24.73;;;4.05;;
53971;SDS011;40530;53.062;6.078;2023-03-14T09:52:32;25.75;;;3.72;;
53971;SDS011;40530;53.062;6.078;2023-03-14T09:55:03;30.63;;;4.70;;
53971;SDS011;40530;53.062;6.078;2023-03-14T09:57:30;20.85;;;3.17;;
53971;SDS011;40530;53.062;6.078;2023-03-14T10:00:00;22.80;;;4.05;;
53971;SDS011;40530;53.062;6.078;2023-03-14T10:02:36;20.20;;;3.30;;
53971;SDS011;40530;53.062;6.078;2023-03-14T10:05:05;22.90;;;3.15;;
53971;SDS011;40530;53.062;6.078;2023-03-14T10:07:33;23.48;;;3.63;;
53971;SDS011;40530;53.062;6.078;2023-03-14T10:09:59;24.55;;;3.25;;
53971;SDS011;40530;53.062;6.078;2023-03-14T10:12:36;22.13;;;4.82;;
53971;SDS011;40530;53.062;6.078;2023-03-14T10:15:08;24.35;;;4.80;;
53971;SDS011;40530;53.062;6.078;2023-03-14T10:17:42;21.17;;;3.47;;
53971;SDS011;40530;53.062;6.078;2023-03-14T10:22:47;14.00;;;2.90;;
53971;SDS011;40530;53.062;6.078;2023-03-14T10:25:23;15.60;;;2.78;;
53971;SDS011;40530;53.062;6.078;2023-03-14T10:27:51;20.55;;;2.88;;
53971;SDS011;40530;53.062;6.078;2023-03-14T10:30:40;11.82;;;2.47;;
53971;SDS011;40530;53.062;6.078;2023-03-14T10:33:18;16.65;;;2.90;;
53971;SDS011;40530;53.062;6.078;2023-03-14T10:35:46;19.63;;;2.88;;
53971;SDS011;40530;53.062;6.078;2023-03-14T10:38:13;21.90;;;3.15;;
53971;SDS011;40530;53.062;6.078;2023-03-14T10:40:40;22.15;;;3.60;;
53971;SDS011;40530;53.062;6.078;2023-03-14T10:43:11;9.73;;;1.95;;
53971;SDS011;40530;53.062;6.078;2023-03-14T10:45:38;17.55;;;2.33;;
53971;SDS011;40530;53.062;6.078;2023-03-14T10:48:06;15.73;;;2.22;;
53971;SDS011;40530;53.062;6.078;2023-03-14T10:50:32;9.60;;;1.70;;
53971;SDS011;40530;53.062;6.078;2023-03-14T10:53:00;14.25;;;2.10;;
53971;SDS011;40530;53.062;6.078;2023-03-14T10:55:39;13.68;;;1.90;;
53971;SDS011;40530;53.062;6.078;2023-03-14T10:58:16;15.35;;;2.63;;
53971;SDS011;40530;53.062;6.078;2023-03-14T11:00:42;12.27;;;2.28;;
53971;SDS011;40530;53.062;6.078;2023-03-14T11:03:11;13.13;;;2.40;;
53971;SDS011;40530;53.062;6.078;2023-03-14T11:05:59;7.30;;;1.67;;
53971;SDS011;40530;53.062;6.078;2023-03-14T11:08:31;14.25;;;2.42;;
53971;SDS011;40530;53.062;6.078;2023-03-14T11:19:16;7.85;;;1.88;;
53971;SDS011;40530;53.062;6.078;2023-03-14T11:21:59;11.40;;;1.33;;
53971;SDS011;40530;53.062;6.078;2023-03-14T11:24:41;12.95;;;1.60;;
53971;SDS011;40530;53.062;6.078;2023-03-14T11:27:17;19.95;;;2.22;;
53971;SDS011;40530;53.062;6.078;2023-03-14T11:29:51;14.13;;;1.55;;
53971;SDS011;40530;53.062;6.078;2023-03-14T11:34:55;4.32;;;0.90;;
53971;SDS011;40530;53.062;6.078;2023-03-14T11:37:26;5.88;;;1.05;;
53971;SDS011;40530;53.062;6.078;2023-03-14T11:39:57;5.97;;;1.48;;
53971;SDS011;40530;53.062;6.078;2023-03-14T11:42:24;9.85;;;1.05;;
53971;SDS011;40530;53.062;6.078;2023-03-14T11:44:52;4.15;;;0.88;;
53971;SDS011;40530;53.062;6.078;2023-03-14T11:47:37;9.63;;;1.40;;
53971;SDS011;40530;53.062;6.078;2023-03-14T11:50:15;7.35;;;1.60;;
53971;SDS011;40530;53.062;6.078;2023-03-14T11:52:56;8.65;;;1.20;;
53971;SDS011;40530;53.062;6.078;2023-03-14T11:57:53;5.47;;;1.10;;
53971;SDS011;40530;53.062;6.078;2023-03-14T12:00:22;12.07;;;2.80;;
53971;SDS011;40530;53.062;6.078;2023-03-14T12:10:19;11.77;;;1.67;;
53971;SDS011;40530;53.062;6.078;2023-03-14T12:12:45;8.27;;;1.90;;
53971;SDS011;40530;53.062;6.078;2023-03-14T12:15:19;14.05;;;2.03;;
53971;SDS011;40530;53.062;6.078;2023-03-14T12:17:46;10.98;;;2.10;;
53971;SDS011;40530;53.062;6.078;2023-03-14T12:20:22;20.48;;;2.20;;
53971;SDS011;40530;53.062;6.078;2023-03-14T12:22:50;8.77;;;1.98;;
53971;SDS011;40530;53.062;6.078;2023-03-14T12:25:18;9.20;;;1.60;;
53971;SDS011;40530;53.062;6.078;2023-03-14T12:30:30;17.52;;;1.35;;
53971;SDS011;40530;53.062;6.078;2023-03-14T12:35:33;8.85;;;1.83;;
53971;SDS011;40530;53.062;6.078;2023-03-14T12:37:59;6.97;;;1.55;;
53971;SDS011;40530;53.062;6.078;2023-03-14T12:40:32;13.50;;;2.13;;
53971;SDS011;40530;53.062;6.078;2023-03-14T12:43:01;11.50;;;1.60;;
53971;SDS011;40530;53.062;6.078;2023-03-14T12:50:27;9.50;;;1.45;;
53971;SDS011;40530;53.062;6.078;2023-03-14T12:56:42;9.35;;;1.73;;
53971;SDS011;40530;53.062;6.078;2023-03-14T12:58:44;6.65;;;0.90;;
53971;SDS011;40530;53.062;6.078;2023-03-14T13:01:15;9.38;;;2.22;;
53971;SDS011;40530;53.062;6.078;2023-03-14T13:03:43;8.32;;;1.13;;
53971;SDS011;40530;53.062;6.078;2023-03-14T13:06:10;5.15;;;1.52;;
53971;SDS011;40530;53.062;6.078;2023-03-14T13:08:38;8.27;;;1.92;;
53971;SDS011;40530;53.062;6.078;2023-03-14T13:11:06;7.57;;;1.73;;
53971;SDS011;40530;53.062;6.078;2023-03-14T13:13:34;7.22;;;1.40;;
53971;SDS011;40530;53.062;6.078;2023-03-14T13:16:00;13.27;;;2.72;;
53971;SDS011;40530;53.062;6.078;2023-03-14T13:21:01;12.27;;;2.15;;
53971;SDS011;40530;53.062;6.078;2023-03-14T13:25:54;9.98;;;1.40;;
53971;SDS011;40530;53.062;6.078;2023-03-14T13:28:21;5.38;;;1.10;;
53971;SDS011;40530;53.062;6.078;2023-03-14T13:30:48;9.68;;;1.60;;
53971;SDS011;40530;53.062;6.078;2023-03-14T13:33:17;7.95;;;1.65;;
53971;SDS011;40530;53.062;6.078;2023-03-14T13:35:48;8.20;;;1.20;;
53971;SDS011;40530;53.062;6.078;2023-03-14T13:38:16;12.15;;;1.38;;
53971;SDS011;40530;53.062;6.078;2023-03-14T13:40:43;6.75;;;1.50;;
53971;SDS011;40530;53.062;6.078;2023-03-14T13:45:48;6.25;;;1.17;;
53971;SDS011;40530;53.062;6.078;2023-03-14T13:48:15;11.05;;;1.92;;
53971;SDS011;40530;53.062;6.078;2023-03-14T13:53:26;11.65;;;1.52;;
53971;SDS011;40530;53.062;6.078;2023-03-14T13:55:53;13.88;;;2.22;;
53971;SDS011;40530;53.062;6.078;2023-03-14T13:58:26;6.97;;;1.70;;
53971;SDS011;40530;53.062;6.078;2023-03-14T14:00:56;6.88;;;1.63;;
53971;SDS011;40530;53.062;6.078;2023-03-14T14:03:22;15.02;;;1.40;;
53971;SDS011;40530;53.062;6.078;2023-03-14T14:05:49;7.43;;;1.85;;
53971;SDS011;40530;53.062;6.078;2023-03-14T14:08:15;7.78;;;1.38;;
53971;SDS011;40530;53.062;6.078;2023-03-14T14:10:41;9.77;;;1.33;;
53971;SDS011;40530;53.062;6.078;2023-03-14T14:13:08;6.60;;;1.52;;
53971;SDS011;40530;53.062;6.078;2023-03-14T14:15:40;11.32;;;1.35;;
53971;SDS011;40530;53.062;6.078;2023-03-14T14:18:07;8.27;;;1.35;;
53971;SDS011;40530;53.062;6.078;2023-03-14T14:20:43;9.45;;;1.13;;
53971;SDS011;40530;53.062;6.078;2023-03-14T14:23:10;9.38;;;1.42;;
53971;SDS011;40530;53.062;6.078;2023-03-14T14:25:37;10.02;;;1.30;;
53971;SDS011;40530;53.062;6.078;2023-03-14T14:30:58;18.33;;;2.92;;
53971;SDS011;40530;53.062;6.078;2023-03-14T14:33:24;7.60;;;1.10;;
53971;SDS011;40530;53.062;6.078;2023-03-14T14:35:57;7.20;;;0.93;;
53971;SDS011;40530;53.062;6.078;2023-03-14T14:38:24;6.13;;;0.90;;
53971;SDS011;40530;53.062;6.078;2023-03-14T14:40:52;6.82;;;1.20;;
53971;SDS011;40530;53.062;6.078;2023-03-14T14:43:23;7.35;;;1.20;;
53971;SDS011;40530;53.062;6.078;2023-03-14T14:45:50;10.13;;;2.17;;
53971;SDS011;40530;53.062;6.078;2023-03-14T14:48:19;6.07;;;1.83;;
53971;SDS011;40530;53.062;6.078;2023-03-14T14:51:01;7.57;;;1.00;;
53971;SDS011;40530;53.062;6.078;2023-03-14T14:53:29;8.32;;;1.27;;
53971;SDS011;40530;53.062;6.078;2023-03-14T14:55:59;9.15;;;1.25;;
53971;SDS011;40530;53.062;6.078;2023-03-14T14:58:30;10.02;;;1.45;;
53971;SDS011;40530;53.062;6.078;2023-03-14T15:00:59;6.72;;;1.77;;
53971;SDS011;40530;53.062;6.078;2023-03-14T15:03:29;7.75;;;1.33;;
53971;SDS011;40530;53.062;6.078;2023-03-14T15:05:59;6.35;;;1.33;;
53971;SDS011;40530;53.062;6.078;2023-03-14T15:08:25;12.02;;;1.50;;
53971;SDS011;40530;53.062;6.078;2023-03-14T15:10:52;9.48;;;2.10;;
53971;SDS011;40530;53.062;6.078;2023-03-14T15:13:19;9.95;;;1.60;;
53971;SDS011;40530;53.062;6.078;2023-03-14T15:15:45;18.42;;;2.58;;
53971;SDS011;40530;53.062;6.078;2023-03-14T15:18:15;6.35;;;2.03;;
53971;SDS011;40530;53.062;6.078;2023-03-14T15:20:42;8.63;;;1.40;;
53971;SDS011;40530;53.062;6.078;2023-03-14T15:23:13;14.80;;;1.70;;
53971;SDS011;40530;53.062;6.078;2023-03-14T15:25:39;11.48;;;1.90;;
53971;SDS011;40530;53.062;6.078;2023-03-14T15:28:21;14.07;;;1.83;;
53971;SDS011;40530;53.062;6.078;2023-03-14T15:30:48;7.85;;;1.50;;
53971;SDS011;40530;53.062;6.078;2023-03-14T15:33:18;10.40;;;1.48;;
53971;SDS011;40530;53.062;6.078;2023-03-14T15:35:44;9.10;;;1.85;;
53971;SDS011;40530;53.062;6.078;2023-03-14T15:38:12;10.50;;;1.30;;
53971;SDS011;40530;53.062;6.078;2023-03-14T15:40:39;6.97;;;1.05;;